Time;durP1;ratioP1;P1;durP2;ratioP2;P2;SDS_P1;SDS_P2;PMS_P1;PMS_P2;Temp;Humidity;BMP_temperature;BMP_pressure;BME280_temperature;BME280_humidity;BME280_pressure;Samples;Min_cycle;Max_cycle;Signal;HPM_P1;HPM_P2
2023/01/08 00:00:00;;;;;;;96.90;26.80;;;;;;;5.58;100.00;98924.72;4439147;32;20153;-70
2023/01/08 00:02:38;;;;;;;81.78;26.85;;;;;;;5.60;100.00;98928.09;4439274;32;20164;-70
2023/01/08 00:05:06;;;;;;;73.45;26.45;;;;;;;5.67;100.00;98931.91;4439275;32;20112;-70
2023/01/08 00:07:33;;;;;;;79.68;25.23;;;;;;;5.63;100.00;98934.81;4439472;32;20120;-70
2023/01/08 00:10:00;;;;;;;84.85;24.98;;;;;;;5.63;100.00;98919.22;4430734;32;20117;-70
2023/01/08 00:12:27;;;;;;;94.72;27.33;;;;;;;5.53;100.00;98923.34;4423659;32;20494;-70
2023/01/08 00:14:54;;;;;;;93.55;26.27;;;;;;;5.41;100.00;98923.25;4423865;32;20110;-70
2023/01/08 00:17:21;;;;;;;77.00;24.45;;;;;;;5.53;100.00;98923.34;4423777;32;20443;-70
2023/01/08 00:19:48;;;;;;;89.30;27.23;;;;;;;5.59;100.00;98925.59;4423859;32;20123;-70
2023/01/08 00:22:15;;;;;;;92.10;27.08;;;;;;;5.46;100.00;98918.56;4433410;32;20180;-70
2023/01/08 00:24:42;;;;;;;90.28;29.00;;;;;;;5.48;100.00;98915.88;4439150;32;20470;-70
2023/01/08 00:27:10;;;;;;;91.25;27.33;;;;;;;5.36;100.00;98912.34;4439222;32;20163;-70
2023/01/08 00:29:37;;;;;;;87.43;29.98;;;;;;;5.48;100.00;98908.06;4439371;32;20105;-70
2023/01/08 00:32:04;;;;;;;76.93;25.80;;;;;;;5.42;100.00;98911.09;4439164;32;20463;-70
2023/01/08 00:34:31;;;;;;;77.30;24.67;;;;;;;5.40;100.00;98903.37;4439372;32;20117;-70
2023/01/08 00:36:58;;;;;;;96.55;27.73;;;;;;;5.45;100.00;98906.53;4438931;32;20157;-70
2023/01/08 00:39:25;;;;;;;87.70;27.13;;;;;;;5.46;100.00;98922.94;4439067;32;20098;-70
2023/01/08 00:41:53;;;;;;;91.03;25.05;;;;;;;5.51;100.00;98918.25;4438542;32;20168;-70
2023/01/08 00:44:20;;;;;;;88.82;26.80;;;;;;;5.57;100.00;98920.50;4439210;32;20140;-70
2023/01/08 00:46:47;;;;;;;99.80;27.33;;;;;;;5.58;100.00;98921.31;4439328;32;20470;-70
2023/01/08 00:49:14;;;;;;;80.40;26.33;;;;;;;5.62;100.00;98933.19;4439032;32;20164;-70
2023/01/08 00:51:41;;;;;;;88.57;27.33;;;;;;;5.58;100.00;98931.72;4439004;32;20089;-70
2023/01/08 00:54:10;;;;;;;81.60;25.70;;;;;;;5.64;100.00;98934.72;4438982;32;20161;-70
2023/01/08 00:56:37;;;;;;;77.32;26.02;;;;;;;5.62;100.00;98920.19;4438943;32;20200;-70
2023/01/08 00:59:04;;;;;;;80.32;27.40;;;;;;;5.60;100.00;98927.22;4438771;32;20089;-70
2023/01/08 01:01:31;;;;;;;86.28;27.20;;;;;;;5.61;100.00;98915.91;4438794;32;20113;-70
2023/01/08 01:03:59;;;;;;;84.55;26.60;;;;;;;5.54;100.00;98922.44;4438826;32;20133;-70
2023/01/08 01:06:26;;;;;;;74.60;26.33;;;;;;;5.54;100.00;98919.84;4438845;32;20104;-70
2023/01/08 01:08:53;;;;;;;79.00;26.00;;;;;;;5.58;100.00;98929.09;4437302;32;20136;-70
2023/01/08 01:11:23;;;;;;;77.78;24.37;;;;;;;5.49;100.00;98918.37;4423308;32;20164;-70
2023/01/08 01:13:51;;;;;;;86.53;24.90;;;;;;;5.43;100.00;98921.38;4423532;32;20391;-70
2023/01/08 01:16:18;;;;;;;79.70;22.80;;;;;;;5.39;100.00;98914.75;4423288;32;20419;-70
2023/01/08 01:18:46;;;;;;;81.35;25.58;;;;;;;5.40;100.00;98913.78;4423326;32;20144;-70
2023/01/08 01:21:31;;;;;;;82.05;26.33;;;;;;;5.35;100.00;98913.25;4426566;32;20135;-70
2023/01/08 01:24:04;;;;;;;80.35;25.60;;;;;;;5.44;100.00;98917.03;4438705;32;20082;-70
2023/01/08 01:26:32;;;;;;;78.32;26.25;;;;;;;5.48;100.00;98906.34;4424609;32;20116;-70
2023/01/08 01:29:00;;;;;;;87.47;26.83;;;;;;;5.40;100.00;98910.37;4438496;32;20119;-70
2023/01/08 01:31:29;;;;;;;83.85;27.95;;;;;;;5.44;100.00;98899.66;4438571;32;20447;-70
2023/01/08 01:33:56;;;;;;;85.82;26.40;;;;;;;5.20;100.00;98902.09;4438690;32;20521;-70
2023/01/08 01:36:24;;;;;;;80.18;28.70;;;;;;;5.23;100.00;98896.72;4438818;32;20093;-70
2023/01/08 01:38:53;;;;;;;88.12;26.08;;;;;;;5.28;100.00;98901.59;4438745;32;20089;-70
2023/01/08 01:41:26;;;;;;;83.57;26.17;;;;;;;5.32;100.00;98890.91;4438566;32;20123;-70
2023/01/08 01:43:56;;;;;;;72.78;26.35;;;;;;;5.33;100.00;98891.75;4438813;32;20518;-70
2023/01/08 01:46:22;;;;;;;69.12;23.90;;;;;;;5.38;100.00;98888.84;4438656;32;20349;-70
2023/01/08 01:48:52;;;;;;;83.03;27.30;;;;;;;5.33;100.00;98883.97;4438535;32;20119;-70
2023/01/08 01:51:20;;;;;;;91.22;28.05;;;;;;;5.36;100.00;98880.31;4438491;32;20117;-70
2023/01/08 01:53:48;;;;;;;80.57;26.20;;;;;;;5.36;100.00;98872.53;4423675;32;20094;-70
2023/01/08 01:56:15;;;;;;;75.93;25.10;;;;;;;5.33;100.00;98876.19;4424592;32;20166;-70
2023/01/08 01:58:42;;;;;;;82.55;23.50;;;;;;;5.24;100.00;98867.22;4424493;32;20160;-70
2023/01/08 02:01:09;;;;;;;68.95;23.62;;;;;;;5.28;100.00;98858.28;4438516;32;20838;-70
2023/01/08 02:03:38;;;;;;;55.12;20.00;;;;;;;5.22;100.00;98857.84;4438491;32;20165;-70
2023/01/08 02:06:20;;;;;;;69.70;25.23;;;;;;;5.28;100.00;98857.44;4438306;32;20449;-70
2023/01/08 02:09:13;;;;;;;74.68;25.67;;;;;;;5.29;100.00;98849.56;4437290;32;20427;-70
2023/01/08 02:12:15;;;;;;;73.87;25.52;;;;;;;5.28;100.00;98855.69;4422992;32;20160;-70
2023/01/08 02:15:03;;;;;;;68.43;23.00;;;;;;;5.24;100.00;98843.84;4411212;32;20077;-70
2023/01/08 02:18:11;;;;;;;67.20;26.30;;;;;;;5.13;100.00;98848.91;4423200;32;20185;-70
2023/01/08 02:20:41;;;;;;;89.10;24.92;;;;;;;5.11;100.00;98841.19;4409094;32;20102;-70
2023/01/08 02:23:31;;;;;;;82.55;25.98;;;;;;;5.07;100.00;98841.50;4409344;32;20151;-70
2023/01/08 02:26:26;;;;;;;76.82;25.17;;;;;;;5.19;100.00;98842.47;4422697;32;20132;-70
2023/01/08 02:28:58;;;;;;;70.57;24.75;;;;;;;5.25;100.00;98837.69;4422629;32;20128;-70
2023/01/08 02:31:28;;;;;;;81.35;26.30;;;;;;;5.15;100.00;98821.06;4422982;32;20143;-70
2023/01/08 02:33:55;;;;;;;67.37;24.65;;;;;;;5.15;100.00;98828.88;4409139;32;20509;-70
2023/01/08 02:36:43;;;;;;;71.28;24.25;;;;;;;5.19;100.00;98824.28;4422744;32;20132;-70
2023/01/08 02:39:15;;;;;;;63.33;24.80;;;;;;;5.24;100.00;98824.81;4422846;32;20139;-70
2023/01/08 02:41:45;;;;;;;67.90;23.85;;;;;;;5.17;100.00;98824.41;4409168;32;20403;-70
2023/01/08 02:44:47;;;;;;;59.05;22.08;;;;;;;5.24;100.00;98835.19;4422738;32;20107;-70
2023/01/08 02:47:21;;;;;;;59.33;22.10;;;;;;;5.25;100.00;98829.06;4374998;32;20102;-70
2023/01/08 02:49:52;;;;;;;68.18;22.58;;;;;;;5.29;100.00;98817.56;4362538;32;20137;-70
2023/01/08 02:52:20;;;;;;;68.72;22.87;;;;;;;5.26;100.00;98834.16;4374812;32;20503;-70
2023/01/08 02:54:48;;;;;;;62.60;22.23;;;;;;;5.15;100.00;98819.31;4374676;32;20150;-70
2023/01/08 02:57:16;;;;;;;63.63;23.83;;;;;;;5.20;100.00;98824.19;4362640;32;20103;-70
2023/01/08 02:59:44;;;;;;;68.28;23.90;;;;;;;5.09;100.00;98824.09;4362160;32;20182;-70
2023/01/08 03:02:11;;;;;;;70.12;24.58;;;;;;;5.19;100.00;98809.53;4362439;32;20115;-70
2023/01/08 03:05:01;;;;;;;65.90;22.92;;;;;;;5.21;100.00;98823.25;4374030;32;20486;-70
2023/01/08 03:07:28;;;;;;;67.30;23.45;;;;;;;5.20;100.00;98807.78;4374283;32;20162;-70
2023/01/08 03:09:56;;;;;;;60.78;23.40;;;;;;;5.12;100.00;98813.50;4374395;32;20416;-70
2023/01/08 03:12:35;;;;;;;70.30;22.40;;;;;;;5.09;100.00;98811.91;4362362;32;20103;-70
2023/01/08 03:15:13;;;;;;;66.47;24.12;;;;;;;5.14;100.00;98814.22;4362134;32;20090;-70
2023/01/08 03:17:46;;;;;;;69.12;23.87;;;;;;;5.28;100.00;98808.09;4374541;32;20082;-70
2023/01/08 03:20:19;;;;;;;71.15;21.65;;;;;;;5.17;100.00;98802.78;4362076;32;20476;-70
2023/01/08 03:22:49;;;;;;;68.85;24.20;;;;;;;5.18;100.00;98804.44;4362023;32;20098;-70
2023/01/08 03:25:19;;;;;;;66.62;23.48;;;;;;;5.03;100.00;98804.53;4403995;32;20090;-70
2023/01/08 03:27:51;;;;;;;74.55;25.15;;;;;;;5.16;100.00;98812.34;4408112;32;20140;-70
2023/01/08 03:30:19;;;;;;;59.88;23.38;;;;;;;5.17;100.00;98797.59;4408140;32;20141;-70
2023/01/08 03:32:48;;;;;;;74.40;27.17;;;;;;;5.10;100.00;98804.94;4408513;32;20109;-70
2023/01/08 03:35:18;;;;;;;89.50;25.65;;;;;;;5.12;100.00;98810.91;4408155;32;20163;-70
2023/01/08 03:37:50;;;;;;;73.22;23.05;;;;;;;5.05;100.00;98809.63;4408010;32;20098;-70
2023/01/08 03:40:24;;;;;;;71.40;21.55;;;;;;;4.92;100.00;98807.84;4408045;32;20236;-70
2023/01/08 03:42:51;;;;;;;80.12;22.85;;;;;;;5.08;100.00;98797.25;4408426;32;20807;-70
2023/01/08 03:45:19;;;;;;;60.00;23.12;;;;;;;5.13;100.00;98805.59;4408131;32;20141;-70
2023/01/08 03:47:47;;;;;;;72.57;23.62;;;;;;;5.10;100.00;98791.97;4407994;32;20110;-70
2023/01/08 03:50:18;;;;;;;74.60;24.27;;;;;;;5.05;100.00;98794.88;4421465;32;20094;-70
2023/01/08 03:52:46;;;;;;;79.05;26.70;;;;;;;5.03;100.00;98788.97;4408073;32;20093;-70
2023/01/08 03:55:13;;;;;;;69.22;22.73;;;;;;;5.09;100.00;98780.75;4421374;32;20523;-70
2023/01/08 03:57:40;;;;;;;62.65;21.92;;;;;;;5.10;100.00;98774.66;4421654;32;20081;-70
2023/01/08 04:00:08;;;;;;;68.55;23.38;;;;;;;5.08;100.00;98779.09;4421347;32;20090;-70
2023/01/08 04:02:35;;;;;;;68.15;22.98;;;;;;;5.09;100.00;98785.12;4421584;32;20113;-70
2023/01/08 04:05:02;;;;;;;65.28;23.45;;;;;;;5.15;100.00;98780.34;4421558;32;20109;-70
2023/01/08 04:07:30;;;;;;;82.53;24.73;;;;;;;5.27;100.00;98785.66;4421689;32;20094;-71
2023/01/08 04:09:57;;;;;;;73.03;23.48;;;;;;;5.22;100.00;98792.91;4429764;32;20121;-70
2023/01/08 04:12:24;;;;;;;65.25;22.35;;;;;;;5.15;100.00;98790.75;4437108;32;20126;-70
2023/01/08 04:14:51;;;;;;;82.40;23.58;;;;;;;5.27;100.00;98791.69;4436726;32;20097;-70
2023/01/08 04:17:19;;;;;;;95.78;22.35;;;;;;;5.24;100.00;98788.44;4437860;32;20089;-71
2023/01/08 04:19:46;;;;;;;88.93;23.40;;;;;;;5.23;100.00;98792.81;4438943;32;20155;-70
2023/01/08 04:22:13;;;;;;;116.30;23.55;;;;;;;5.27;100.00;98789.09;4429455;32;20172;-70
2023/01/08 04:24:40;;;;;;;91.05;20.77;;;;;;;5.18;100.00;98776.72;4423573;32;20144;-70
2023/01/08 04:27:07;;;;;;;119.62;24.02;;;;;;;5.17;100.00;98776.81;4423464;32;20146;-70
2023/01/08 04:29:34;;;;;;;110.10;25.02;;;;;;;5.16;100.00;98770.78;4423521;32;20133;-70
2023/01/08 04:32:02;;;;;;;110.55;23.73;;;;;;;5.15;100.00;98767.38;4423731;32;20123;-70
2023/01/08 04:34:29;;;;;;;103.53;24.02;;;;;;;5.12;100.00;98775.34;4423961;32;20126;-70
2023/01/08 04:36:56;;;;;;;171.93;25.83;;;;;;;5.18;100.00;98770.69;4423626;32;20093;-70
2023/01/08 04:39:23;;;;;;;97.12;22.60;;;;;;;5.11;100.00;98776.28;4423536;32;20173;-70
2023/01/08 04:41:51;;;;;;;132.30;24.27;;;;;;;5.23;100.00;98776.41;4423869;32;20140;-70
2023/01/08 04:44:18;;;;;;;136.25;25.05;;;;;;;5.25;100.00;98775.34;4423470;32;20101;-70
2023/01/08 04:46:45;;;;;;;85.18;22.02;;;;;;;5.12;100.00;98784.94;4423412;32;20383;-70
2023/01/08 04:49:12;;;;;;;102.97;23.95;;;;;;;5.22;100.00;98785.94;4423746;32;20117;-70
2023/01/08 04:51:39;;;;;;;109.60;25.17;;;;;;;5.29;100.00;98779.41;4423356;32;20101;-70
2023/01/08 04:54:06;;;;;;;119.05;25.00;;;;;;;5.20;100.00;98790.44;4423467;32;20157;-70
2023/01/08 04:56:33;;;;;;;101.97;23.20;;;;;;;5.10;100.00;98786.78;4423323;32;20093;-70
2023/01/08 04:59:01;;;;;;;106.55;24.65;;;;;;;5.23;100.00;98777.22;4423210;32;20102;-70
2023/01/08 05:01:28;;;;;;;82.47;23.15;;;;;;;5.13;100.00;98783.97;4423348;32;20440;-70
2023/01/08 05:03:58;;;;;;;80.07;23.38;;;;;;;5.14;100.00;98781.28;4423383;32;20509;-70
2023/01/08 05:06:27;;;;;;;74.47;21.52;;;;;;;5.23;100.00;98781.59;4423395;32;20581;-70
2023/01/08 05:08:55;;;;;;;90.38;24.67;;;;;;;5.26;100.00;98781.41;4424932;32;20140;-70
2023/01/08 05:11:22;;;;;;;122.45;24.73;;;;;;;5.18;100.00;98783.66;4438676;32;20157;-70
2023/01/08 05:13:50;;;;;;;90.95;23.10;;;;;;;5.22;100.00;98772.97;4438723;32;20108;-70
2023/01/08 05:16:18;;;;;;;110.28;24.30;;;;;;;5.27;100.00;98778.69;4438593;32;20093;-70
2023/01/08 05:18:46;;;;;;;88.20;24.25;;;;;;;5.24;100.00;98778.91;4438569;32;20094;-70
2023/01/08 05:21:13;;;;;;;115.00;23.58;;;;;;;5.12;100.00;98772.75;4435651;32;20173;-70
2023/01/08 05:23:44;;;;;;;111.80;24.15;;;;;;;5.06;100.00;98773.19;4423178;32;20090;-70
2023/01/08 05:26:11;;;;;;;122.45;26.45;;;;;;;5.18;100.00;98770.69;4423022;32;20096;-70
2023/01/08 05:28:38;;;;;;;130.45;25.70;;;;;;;5.20;100.00;98768.81;4422597;32;20097;-70
2023/01/08 05:31:05;;;;;;;96.40;22.75;;;;;;;5.06;100.00;98757.59;4423152;32;20101;-70
2023/01/08 05:33:33;;;;;;;99.22;22.20;;;;;;;5.10;100.00;98763.41;4423253;32;20094;-70
2023/01/08 05:36:00;;;;;;;125.10;24.08;;;;;;;5.12;100.00;98764.97;4423172;32;20369;-70
2023/01/08 05:38:27;;;;;;;133.30;21.87;;;;;;;5.07;100.00;98767.06;4409295;32;20408;-70
2023/01/08 05:40:54;;;;;;;120.00;24.10;;;;;;;5.12;100.00;98759.78;4423182;32;20243;-70
2023/01/08 05:43:21;;;;;;;126.95;22.17;;;;;;;4.94;100.00;98755.81;4423120;32;20093;-70
2023/01/08 05:45:49;;;;;;;96.03;23.48;;;;;;;5.00;100.00;98755.41;4423329;32;20159;-70
2023/01/08 05:48:16;;;;;;;86.45;24.75;;;;;;;4.95;100.00;98749.69;4458737;26;20458;-93
2023/01/08 05:50:43;;;;;;;87.75;24.95;;;;;;;4.86;100.00;98758.06;4440144;32;20165;-94
2023/01/08 05:53:11;;;;;;;91.53;23.15;;;;;;;5.11;100.00;98758.09;4454399;32;20161;-93
2023/01/08 05:55:38;;;;;;;96.78;24.17;;;;;;;5.15;100.00;98758.75;4454131;32;20089;-94
2023/01/08 05:58:05;;;;;;;72.32;23.55;;;;;;;5.04;100.00;98745.63;4440105;32;20101;-94
2023/01/08 06:00:33;;;;;;;71.37;22.13;;;;;;;5.07;100.00;98754.06;4453890;32;20173;-94
2023/01/08 06:03:01;;;;;;;67.75;21.73;;;;;;;5.20;100.00;98745.47;4454543;32;20092;-93
2023/01/08 06:05:32;;;;;;;74.32;22.25;;;;;;;5.08;100.00;98732.34;4454034;32;20230;-93
2023/01/08 06:07:59;;;;;;;72.70;24.12;;;;;;;5.06;100.00;98736.81;4454307;32;20093;-94
2023/01/08 06:10:27;;;;;;;90.18;22.92;;;;;;;5.06;100.00;98736.81;4442477;32;20156;-94
2023/01/08 06:12:54;;;;;;;65.45;23.20;;;;;;;5.07;100.00;98733.31;4438735;32;20459;-93
2023/01/08 06:15:22;;;;;;;63.70;21.92;;;;;;;5.17;100.00;98730.09;4438554;32;20180;-94
2023/01/08 06:17:49;;;;;;;88.12;24.52;;;;;;;5.18;100.00;98722.19;4438681;32;20108;-94
2023/01/08 06:20:16;;;;;;;66.62;21.92;;;;;;;5.14;100.00;98725.91;4438634;32;20194;-94
2023/01/08 06:22:43;;;;;;;64.30;25.33;;;;;;;5.16;100.00;98724.03;4438864;32;20158;-93
2023/01/08 06:25:11;;;;;;;65.00;23.25;;;;;;;5.19;100.00;98728.19;4438233;32;20106;-94
2023/01/08 06:27:38;;;;;;;72.37;22.83;;;;;;;5.19;100.00;98736.00;4438683;32;20162;-94
2023/01/08 06:30:08;;;;;;;82.35;23.38;;;;;;;5.22;100.00;98734.00;4424589;32;20616;-94
2023/01/08 06:32:35;;;;;;;77.35;23.98;;;;;;;5.18;100.00;98737.78;4438742;32;20553;-94
2023/01/08 06:35:03;;;;;;;101.05;25.77;;;;;;;5.19;100.00;98738.59;4438476;32;20168;-94
2023/01/08 06:37:30;;;;;;;63.53;22.87;;;;;;;5.06;100.00;98718.66;4438409;32;20093;-94
2023/01/08 06:39:57;;;;;;;66.60;23.50;;;;;;;5.07;100.00;98722.06;4437493;32;20100;-94
2023/01/08 06:42:24;;;;;;;82.68;25.02;;;;;;;5.06;100.00;98726.44;4438304;32;20105;-93
2023/01/08 06:44:52;;;;;;;70.57;23.25;;;;;;;5.14;100.00;98718.94;4424733;32;20552;-94
2023/01/08 06:47:19;;;;;;;78.72;25.92;;;;;;;5.08;100.00;98732.34;4438019;32;20157;-94
2023/01/08 06:49:46;;;;;;;93.40;27.37;;;;;;;5.04;100.00;98732.66;4438299;32;20102;-94
2023/01/08 06:52:13;;;;;;;67.50;23.50;;;;;;;5.00;100.00;98729.44;4438418;32;20162;-94
2023/01/08 06:54:41;;;;;;;66.82;23.75;;;;;;;4.88;100.00;98731.09;4438005;32;20499;-94
2023/01/08 06:57:08;;;;;;;63.95;23.17;;;;;;;5.01;100.00;98732.88;4438437;32;20158;-94
2023/01/08 06:59:35;;;;;;;84.32;25.85;;;;;;;5.06;100.00;98729.03;4438093;32;20156;-94
2023/01/08 07:02:02;;;;;;;69.55;25.17;;;;;;;5.00;100.00;98721.66;4438052;32;20161;-94
2023/01/08 07:04:30;;;;;;;66.55;23.10;;;;;;;5.09;100.00;98728.81;4424207;32;20120;-94
2023/01/08 07:06:57;;;;;;;72.00;24.05;;;;;;;5.22;100.00;98730.59;4437985;32;20101;-94
2023/01/08 07:09:24;;;;;;;86.90;24.40;;;;;;;5.20;100.00;98735.06;4442555;32;20226;-94
2023/01/08 07:11:51;;;;;;;92.12;25.15;;;;;;;5.23;100.00;98729.66;4453486;32;20084;-95
2023/01/08 07:14:18;;;;;;;80.35;21.65;;;;;;;5.10;100.00;98720.13;4453354;32;20141;-93
2023/01/08 07:16:46;;;;;;;69.87;24.50;;;;;;;5.05;100.00;98729.13;4453364;32;20097;-93
2023/01/08 07:19:13;;;;;;;72.00;25.10;;;;;;;5.03;100.00;98724.06;4453458;32;20089;-94
2023/01/08 07:21:40;;;;;;;106.80;26.62;;;;;;;5.12;100.00;98725.19;4447110;32;20163;-94
2023/01/08 07:24:08;;;;;;;82.30;25.27;;;;;;;4.94;100.00;98727.25;4437948;32;20140;-94
2023/01/08 07:26:35;;;;;;;63.97;22.90;;;;;;;4.97;100.00;98717.50;4437597;32;20105;-93
2023/01/08 07:29:02;;;;;;;70.78;24.23;;;;;;;5.07;100.00;98725.50;4437571;32;20780;-94
2023/01/08 07:31:30;;;;;;;66.07;24.17;;;;;;;5.15;100.00;98718.03;4437579;32;20192;-94
2023/01/08 07:33:57;;;;;;;63.15;24.83;;;;;;;5.14;100.00;98711.16;4437610;32;20169;-94
2023/01/08 07:36:24;;;;;;;66.90;24.35;;;;;;;5.04;100.00;98715.34;4423717;32;20121;-94
2023/01/08 07:38:52;;;;;;;67.82;24.27;;;;;;;5.08;100.00;98715.94;4423873;32;20109;-94
2023/01/08 07:41:19;;;;;;;64.22;26.25;;;;;;;5.09;100.00;98709.84;4423463;32;20102;-93
2023/01/08 07:43:47;;;;;;;77.87;25.88;;;;;;;5.02;100.00;98717.19;4437578;32;20134;-93
2023/01/08 07:46:15;;;;;;;67.32;24.58;;;;;;;4.96;100.00;98712.41;4437300;32;20165;-93
2023/01/08 07:48:42;;;;;;;71.35;24.08;;;;;;;5.05;100.00;98711.78;4437404;32;20155;-94
2023/01/08 07:51:09;;;;;;;68.45;24.02;;;;;;;5.07;100.00;98706.50;4438260;32;20115;-94
2023/01/08 07:53:37;;;;;;;65.40;24.98;;;;;;;5.14;100.00;98711.16;4439491;32;20098;-93
2023/01/08 07:56:06;;;;;;;63.25;23.52;;;;;;;5.20;100.00;98704.72;4439594;32;20753;-94
2023/01/08 07:58:34;;;;;;;74.25;25.30;;;;;;;5.20;100.00;98701.31;4425515;32;20097;-95
2023/01/08 08:01:05;;;;;;;64.40;26.40;;;;;;;5.30;100.00;98704.94;4439460;32;20093;-94
2023/01/08 08:03:32;;;;;;;58.60;23.50;;;;;;;5.29;100.00;98708.47;4425774;32;20434;-94
2023/01/08 08:06:00;;;;;;;72.05;25.40;;;;;;;5.32;100.00;98708.25;4439439;32;20097;-94
2023/01/08 08:08:27;;;;;;;61.63;24.77;;;;;;;5.35;100.00;98708.03;4439424;32;20117;-94
2023/01/08 08:10:54;;;;;;;58.28;23.48;;;;;;;5.19;100.00;98708.25;4453802;32;20175;-94
2023/01/08 08:13:22;;;;;;;66.85;25.95;;;;;;;5.11;100.00;98698.37;4454866;32;20119;-94
2023/01/08 08:15:49;;;;;;;63.10;23.48;;;;;;;5.10;100.00;98690.69;4455039;32;20512;-94
2023/01/08 08:18:17;;;;;;;60.17;22.40;;;;;;;5.12;100.00;98681.06;4454733;32;20172;-94
2023/01/08 08:20:44;;;;;;;61.03;22.08;;;;;;;5.14;100.00;98684.38;4455065;32;20101;-94
2023/01/08 08:23:13;;;;;;;55.53;23.75;;;;;;;4.92;100.00;98684.97;4439410;32;20086;-94
2023/01/08 08:25:41;;;;;;;62.03;25.77;;;;;;;4.98;100.00;98685.41;4425445;32;20105;-94
2023/01/08 08:28:09;;;;;;;60.60;24.00;;;;;;;5.18;100.00;98682.37;4439400;32;20093;-94
2023/01/08 08:30:37;;;;;;;61.35;23.98;;;;;;;5.22;100.00;98682.06;4439075;32;20583;-94
2023/01/08 08:33:08;;;;;;;61.08;23.52;;;;;;;5.21;100.00;98680.44;4439271;32;20112;-93
2023/01/08 08:35:36;;;;;;;59.33;23.08;;;;;;;5.20;100.00;98664.94;4439312;32;20185;-94
2023/01/08 08:38:04;;;;;;;60.53;24.45;;;;;;;5.27;100.00;98680.00;4439066;32;20639;-93
2023/01/08 08:40:31;;;;;;;55.17;22.17;;;;;;;5.48;100.00;98672.50;4439609;32;20115;-93
2023/01/08 08:43:00;;;;;;;54.63;23.80;;;;;;;5.47;100.00;98676.00;4439046;32;20230;-93
2023/01/08 08:45:28;;;;;;;63.38;21.25;;;;;;;5.52;100.00;98667.91;4439205;32;20097;-94
2023/01/08 08:47:55;;;;;;;54.80;22.58;;;;;;;5.61;100.00;98669.03;4438905;32;20157;-94
2023/01/08 08:50:22;;;;;;;50.38;21.85;;;;;;;5.59;100.00;98668.31;4439111;32;20093;-95
2023/01/08 08:52:50;;;;;;;57.72;24.63;;;;;;;5.70;100.00;98665.78;4439378;32;20081;-93
2023/01/08 08:55:17;;;;;;;54.88;22.45;;;;;;;5.62;100.00;98662.91;4439039;32;20551;-94
2023/01/08 08:57:45;;;;;;;53.40;22.98;;;;;;;5.59;100.00;98652.72;4439141;32;20085;-94
2023/01/08 09:00:13;;;;;;;51.58;22.52;;;;;;;5.57;100.00;98664.97;4439112;32;20105;-94
2023/01/08 09:02:41;;;;;;;48.63;21.52;;;;;;;5.66;100.00;98665.16;4438424;32;20115;-93
2023/01/08 09:05:09;;;;;;;52.67;21.70;;;;;;;5.69;100.00;98659.75;4439131;32;20135;-94
2023/01/08 09:07:36;;;;;;;48.65;21.77;;;;;;;5.76;100.00;98659.31;4424909;32;20864;-93
2023/01/08 09:10:05;;;;;;;46.67;21.30;;;;;;;5.93;100.00;98655.50;4447935;32;20093;-94
2023/01/08 09:12:32;;;;;;;51.00;21.85;;;;;;;5.99;100.00;98653.31;4454367;32;20517;-94
2023/01/08 09:14:59;;;;;;;43.75;21.58;;;;;;;6.03;100.00;98656.53;4440516;32;20166;-94
2023/01/08 09:17:26;;;;;;;47.97;20.48;;;;;;;6.00;100.00;98654.16;4440485;32;20096;-94
2023/01/08 09:19:53;;;;;;;42.50;18.92;;;;;;;6.25;100.00;98660.16;4454425;32;20180;-94
2023/01/08 09:22:21;;;;;;;44.33;19.30;;;;;;;6.17;100.00;98658.94;4429853;32;20494;-94
2023/01/08 09:24:48;;;;;;;47.38;20.48;;;;;;;6.25;100.00;98661.00;4425111;32;20125;-94
2023/01/08 09:27:15;;;;;;;41.85;19.25;;;;;;;6.18;100.00;98658.00;4438736;32;20198;-94
2023/01/08 09:29:42;;;;;;;37.53;18.37;;;;;;;6.18;100.00;98652.00;4438796;32;20423;-94
2023/01/08 09:32:10;;;;;;;45.15;19.90;;;;;;;6.33;100.00;98640.47;4439201;32;20177;-95
2023/01/08 09:34:37;;;;;;;44.25;20.05;;;;;;;6.41;100.00;98639.06;4438807;32;20120;-94
2023/01/08 09:37:05;;;;;;;50.00;20.17;;;;;;;6.59;100.00;98640.28;4438827;32;20176;-94
2023/01/08 09:39:32;;;;;;;38.92;18.50;;;;;;;6.91;100.00;98635.25;4438721;32;20117;-94
2023/01/08 09:42:03;;;;;;;42.80;18.42;;;;;;;6.77;100.00;98622.47;4425057;32;20116;-94
2023/01/08 09:44:38;;;;;;;37.80;17.30;;;;;;;6.75;100.00;98630.38;4425035;32;20180;-94
2023/01/08 09:47:21;;;;;;;44.05;18.83;;;;;;;6.66;100.00;98628.47;4424748;32;20527;-94
2023/01/08 09:49:49;;;;;;;38.35;18.02;;;;;;;6.69;100.00;98617.00;4424902;32;20153;-94
2023/01/08 09:52:17;;;;;;;41.97;19.62;;;;;;;6.55;100.00;98618.03;4424592;32;20128;-94
2023/01/08 09:54:44;;;;;;;38.40;18.75;;;;;;;6.77;100.00;98606.00;4438655;32;20089;-94
2023/01/08 09:57:19;;;;;;;37.63;17.33;;;;;;;6.96;100.00;98602.81;4424760;32;20187;-94
2023/01/08 09:59:48;;;;;;;37.00;18.37;;;;;;;6.78;100.00;98598.06;4438495;32;20086;-94
2023/01/08 10:02:21;;;;;;;33.30;18.00;;;;;;;7.02;100.00;98594.53;4424746;32;20098;-93
2023/01/08 10:04:55;;;;;;;37.42;18.77;;;;;;;7.25;100.00;98596.19;4424923;32;20128;-94
2023/01/08 10:07:24;;;;;;;36.38;17.90;;;;;;;7.37;100.00;98585.72;4424710;32;20105;-94
2023/01/08 10:09:52;;;;;;;34.65;17.12;;;;;;;7.32;100.00;98582.66;4446193;32;20497;-94
2023/01/08 10:12:31;;;;;;;36.00;18.40;;;;;;;7.09;100.00;98580.09;4440104;32;20093;-94
2023/01/08 10:15:03;;;;;;;33.85;17.48;;;;;;;7.38;100.00;98584.78;4439088;32;20101;-95
2023/01/08 10:17:36;;;;;;;33.97;18.00;;;;;;;7.54;100.00;98581.78;4427169;32;20101;-94
2023/01/08 10:20:13;;;;;;;34.83;17.65;;;;;;;7.64;100.00;98577.47;4453953;32;20439;-94
2023/01/08 10:22:41;;;;;;;37.85;16.77;;;;;;;7.64;100.00;98573.13;4441701;32;20093;-93
2023/01/08 10:25:18;;;;;;;40.28;18.77;;;;;;;7.57;100.00;98553.69;4424447;32;20156;-94
2023/01/08 10:27:51;;;;;;;35.63;17.73;;;;;;;7.66;100.00;98556.50;4438577;32;20426;-95
2023/01/08 10:30:21;;;;;;;33.13;17.90;;;;;;;7.84;100.00;98562.84;4438324;32;20090;-95
2023/01/08 10:32:53;;;;;;;35.20;17.15;;;;;;;7.87;100.00;98561.75;4438666;32;20089;-95
2023/01/08 10:35:28;;;;;;;28.60;16.23;;;;;;;7.87;100.00;98562.59;4424629;32;20097;-95
2023/01/08 10:37:55;;;;;;;27.13;14.10;;;;;;;7.98;100.00;98551.28;4424743;32;20555;-94
2023/01/08 10:40:28;;;;;;;34.70;17.77;;;;;;;7.93;100.00;98543.84;4438283;32;20119;-94
2023/01/08 10:43:03;;;;;;;34.15;16.65;;;;;;;8.02;100.00;98534.41;4424934;32;20131;-93
2023/01/08 10:45:32;;;;;;;30.05;16.42;;;;;;;8.11;100.00;98535.44;4438499;32;20085;-94
2023/01/08 10:48:01;;;;;;;32.95;17.30;;;;;;;8.07;100.00;98536.63;4438077;32;20097;-94
2023/01/08 10:50:30;;;;;;;32.70;16.87;;;;;;;8.08;100.00;98530.47;4424669;32;20786;-94
2023/01/08 10:53:05;;;;;;;28.12;16.10;;;;;;;8.04;100.00;98526.47;4438248;32;20450;-94
2023/01/08 10:55:36;;;;;;;31.15;15.80;;;;;;;8.07;100.00;98521.00;4438233;32;20438;-94
2023/01/08 10:58:13;;;;;;;28.48;15.70;;;;;;;7.90;100.00;98523.25;4412088;32;20131;-94
2023/01/08 11:00:40;;;;;;;29.67;15.70;;;;;;;7.97;100.00;98520.94;4438141;32;20414;-94
2023/01/08 11:03:19;;;;;;;28.70;14.63;;;;;;;7.80;100.00;98517.13;4424375;32;20145;-94
2023/01/08 11:05:48;;;;;;;30.62;15.55;;;;;;;7.82;100.00;98515.19;4438168;32;20123;-94
2023/01/08 11:08:18;;;;;;;27.40;14.98;;;;;;;7.78;100.00;98508.56;4437908;32;20105;-94
2023/01/08 11:10:58;;;;;;;25.35;14.35;;;;;;;7.93;100.00;98509.09;4452082;32;20100;-95
2023/01/08 11:13:26;;;;;;;25.92;14.68;;;;;;;8.05;100.00;98496.81;4439630;32;20374;-94
2023/01/08 11:16:01;;;;;;;26.37;13.93;;;;;;;8.27;100.00;98501.91;4453611;32;20664;-94
2023/01/08 11:18:28;;;;;;;24.10;13.95;;;;;;;8.57;100.00;98489.84;4453427;32;20196;-94
2023/01/08 11:21:20;;;;;;;28.02;14.75;;;;;;;8.75;100.00;98489.22;4452159;32;20497;-95
2023/01/08 11:24:00;;;;;;;27.77;14.00;;;;;;;8.96;100.00;98484.75;4424233;32;20119;-94
2023/01/08 11:26:28;;;;;;;25.10;14.30;;;;;;;9.01;100.00;98479.94;4424938;32;20105;-95